createdAt,value
2023-04-15T00:00:17.050Z,522.00
2023-04-15T00:01:17.024Z,522.00
2023-04-15T00:02:17.084Z,524.00
2023-04-15T00:03:17.156Z,526.00
2023-04-15T00:04:17.181Z,527.00
2023-04-15T00:05:16.895Z,523.00
2023-04-15T00:06:16.860Z,525.00
2023-04-15T00:07:16.830Z,527.00
2023-04-15T00:08:16.802Z,527.00
2023-04-15T00:09:16.839Z,528.00
2023-04-15T00:10:16.812Z,530.00
2023-04-15T00:11:16.761Z,529.00
2023-04-15T00:12:16.736Z,528.00
2023-04-15T00:13:16.700Z,527.00
2023-04-15T00:14:16.669Z,525.00
2023-04-15T00:15:16.643Z,524.00
2023-04-15T00:16:16.638Z,525.00
2023-04-15T00:17:16.602Z,525.00
2023-04-15T00:18:16.541Z,525.00
2023-04-15T00:19:16.542Z,527.00
2023-04-15T00:20:16.576Z,529.00
2023-04-15T00:21:16.620Z,529.00
2023-04-15T00:22:16.642Z,526.00
2023-04-15T00:23:16.689Z,527.00
2023-04-15T00:24:16.702Z,526.00
2023-04-15T00:25:16.759Z,524.00
2023-04-15T00:26:16.766Z,523.00
2023-04-15T00:27:16.795Z,521.00
2023-04-15T00:28:16.854Z,519.00
2023-04-15T00:29:16.891Z,519.00
2023-04-15T00:30:16.919Z,519.00
2023-04-15T00:31:17.157Z,518.00
2023-04-15T00:32:16.997Z,519.00
2023-04-15T00:33:17.039Z,519.00
2023-04-15T00:34:17.046Z,519.00
2023-04-15T00:35:17.104Z,519.00
2023-04-15T00:36:17.124Z,518.00
2023-04-15T00:37:17.152Z,517.00
2023-04-15T00:38:17.210Z,520.00
2023-04-15T00:39:17.239Z,517.00
2023-04-15T00:40:17.280Z,517.00
2023-04-15T00:41:17.296Z,517.00
2023-04-15T00:42:17.346Z,517.00
2023-04-15T00:43:17.400Z,514.00
2023-04-15T00:44:17.404Z,516.00
2023-04-15T00:45:17.436Z,516.00
2023-04-15T00:46:17.566Z,516.00
2023-04-15T00:47:17.472Z,518.00
2023-04-15T00:48:17.583Z,516.00
2023-04-15T00:49:17.611Z,516.00
2023-04-15T00:50:17.578Z,515.00
2023-04-15T00:51:17.625Z,517.00
2023-04-15T00:52:17.649Z,517.00
2023-04-15T00:53:17.690Z,518.00
2023-04-15T00:54:17.736Z,517.00
2023-04-15T00:55:17.694Z,518.00
2023-04-15T00:56:17.659Z,522.00
2023-04-15T00:57:17.628Z,519.00
2023-04-15T00:58:17.593Z,517.00
2023-04-15T00:59:17.556Z,518.00
2023-04-15T01:00:17.550Z,519.00
2023-04-15T01:01:17.498Z,521.00
2023-04-15T01:02:17.556Z,518.00
2023-04-15T01:03:17.558Z,521.00
2023-04-15T01:04:17.568Z,521.00
2023-04-15T01:05:17.492Z,521.00
2023-04-15T01:06:17.520Z,518.00
2023-04-15T01:07:17.558Z,518.00
2023-04-15T01:08:17.596Z,518.00
2023-04-15T01:09:17.644Z,518.00
2023-04-15T01:10:17.673Z,520.00
2023-04-15T01:11:17.717Z,521.00
2023-04-15T01:12:17.779Z,521.00
2023-04-15T01:13:17.763Z,518.00
2023-04-15T01:14:17.741Z,519.00
2023-04-15T01:15:17.708Z,520.00
2023-04-15T01:16:17.698Z,519.00
2023-04-15T01:17:17.640Z,514.00
2023-04-15T01:18:17.597Z,511.00
2023-04-15T01:19:17.581Z,512.00
2023-04-15T01:20:17.521Z,513.00
2023-04-15T01:21:17.484Z,515.00
2023-04-15T01:22:17.459Z,516.00
2023-04-15T01:23:17.468Z,517.00
2023-04-15T01:24:17.499Z,516.00
2023-04-15T01:25:17.567Z,516.00
2023-04-15T01:26:17.568Z,517.00
2023-04-15T01:27:17.611Z,519.00
2023-04-15T01:28:17.651Z,520.00
2023-04-15T01:29:17.722Z,521.00
2023-04-15T01:30:17.729Z,525.00
2023-04-15T01:31:17.793Z,527.00
2023-04-15T01:32:17.781Z,528.00
2023-04-15T01:33:17.832Z,527.00
2023-04-15T01:34:17.922Z,528.00
2023-04-15T01:35:17.888Z,526.00
2023-04-15T01:36:17.942Z,525.00
2023-04-15T01:37:17.981Z,523.00
2023-04-15T01:38:18.017Z,522.00
2023-04-15T01:39:18.056Z,523.00
2023-04-15T01:40:18.083Z,524.00
2023-04-15T01:41:18.102Z,522.00
2023-04-15T01:42:18.150Z,521.00
2023-04-15T01:43:18.192Z,521.00
2023-04-15T01:44:18.231Z,521.00
2023-04-15T01:45:18.247Z,520.00
2023-04-15T01:46:18.287Z,520.00
2023-04-15T01:47:18.313Z,519.00
2023-04-15T01:48:18.331Z,519.00
2023-04-15T01:49:18.427Z,518.00
2023-04-15T01:50:18.487Z,518.00
2023-04-15T01:51:18.444Z,518.00
2023-04-15T01:52:18.493Z,517.00
2023-04-15T01:53:18.529Z,517.00
2023-04-15T01:54:18.555Z,518.00
2023-04-15T01:55:18.600Z,517.00
2023-04-15T01:56:18.631Z,519.00
2023-04-15T01:57:18.677Z,516.00
2023-04-15T01:58:18.703Z,517.00
2023-04-15T01:59:18.750Z,517.00
2023-04-15T02:00:18.782Z,519.00
2023-04-15T02:01:18.903Z,522.00
2023-04-15T02:02:18.960Z,521.00
2023-04-15T02:03:18.930Z,519.00
2023-04-15T02:04:18.943Z,517.00
2023-04-15T02:05:18.954Z,515.00
2023-04-15T02:06:18.990Z,516.00
2023-04-15T02:07:18.993Z,518.00
2023-04-15T02:08:19.035Z,522.00
2023-04-15T02:09:19.088Z,521.00
2023-04-15T02:10:19.103Z,519.00
2023-04-15T02:11:19.136Z,521.00
2023-04-15T02:12:19.233Z,521.00
2023-04-15T02:13:19.204Z,520.00
2023-04-15T02:14:19.274Z,519.00
2023-04-15T02:15:19.298Z,518.00
2023-04-15T02:16:19.532Z,521.00
2023-04-15T02:17:19.416Z,521.00
2023-04-15T02:18:19.322Z,522.00
2023-04-15T02:19:19.304Z,523.00
2023-04-15T02:20:19.266Z,523.00
2023-04-15T02:21:19.219Z,523.00
2023-04-15T02:22:19.191Z,521.00
2023-04-15T02:23:19.167Z,521.00
2023-04-15T02:24:19.112Z,521.00
2023-04-15T02:25:19.089Z,522.00
2023-04-15T02:26:19.063Z,524.00
2023-04-15T02:27:19.076Z,525.00
2023-04-15T02:28:19.159Z,525.00
2023-04-15T02:29:19.122Z,523.00
2023-04-15T02:30:19.157Z,520.00
2023-04-15T02:31:19.216Z,519.00
2023-04-15T02:32:19.312Z,519.00
2023-04-15T02:33:19.240Z,519.00
2023-04-15T02:34:19.300Z,518.00
2023-04-15T02:35:19.315Z,519.00
2023-04-15T02:36:19.551Z,519.00
2023-04-15T02:37:19.407Z,520.00
2023-04-15T02:38:19.456Z,516.00
2023-04-15T02:39:19.494Z,512.00
2023-04-15T02:40:19.517Z,510.00
2023-04-15T02:41:19.528Z,508.00
2023-04-15T02:42:19.584Z,508.00
2023-04-15T02:43:19.617Z,507.00
2023-04-15T02:44:19.727Z,504.00
2023-04-15T02:45:19.708Z,504.00
2023-04-15T02:46:19.745Z,504.00
2023-04-15T02:47:19.816Z,503.00
2023-04-15T02:48:19.744Z,501.00
2023-04-15T02:49:19.718Z,500.00
2023-04-15T02:50:19.712Z,498.00
2023-04-15T02:51:19.777Z,494.00
2023-04-15T02:52:19.673Z,494.00
2023-04-15T02:53:19.607Z,493.00
2023-04-15T02:54:19.598Z,490.00
2023-04-15T02:55:19.580Z,488.00
2023-04-15T02:56:19.630Z,485.00
2023-04-15T02:57:19.523Z,482.00
2023-04-15T02:58:19.496Z,481.00
2023-04-15T02:59:19.488Z,480.00
2023-04-15T03:00:19.456Z,480.00
2023-04-15T03:01:19.448Z,477.00
2023-04-15T03:02:19.477Z,474.00
2023-04-15T03:03:19.512Z,471.00
2023-04-15T03:04:19.487Z,469.00
2023-04-15T03:05:19.377Z,467.00
2023-04-15T03:06:19.336Z,465.00
2023-04-15T03:07:19.280Z,466.00
2023-04-15T03:08:19.261Z,466.00
2023-04-15T03:09:19.231Z,468.00
2023-04-15T03:10:19.253Z,466.00
2023-04-15T03:11:19.188Z,466.00
2023-04-15T03:12:19.182Z,466.00
2023-04-15T03:13:19.153Z,467.00
2023-04-15T03:14:19.115Z,470.00
2023-04-15T03:15:19.110Z,469.00
2023-04-15T03:16:19.167Z,471.00
2023-04-15T03:17:19.080Z,467.00
2023-04-15T03:18:19.102Z,463.00
2023-04-15T03:19:18.991Z,460.00
2023-04-15T03:20:19.012Z,456.00
2023-04-15T03:21:18.953Z,456.00
2023-04-15T03:22:18.946Z,457.00
2023-04-15T03:23:18.930Z,457.00
2023-04-15T03:24:18.912Z,455.00
2023-04-15T03:25:18.879Z,454.00
2023-04-15T03:26:18.870Z,457.00
2023-04-15T03:27:18.830Z,457.00
2023-04-15T03:28:18.825Z,457.00
2023-04-15T03:29:18.796Z,456.00
2023-04-15T03:30:18.783Z,456.00
2023-04-15T03:31:18.795Z,455.00
2023-04-15T03:32:18.752Z,452.00
2023-04-15T03:33:18.713Z,449.00
2023-04-15T03:34:18.814Z,452.00
2023-04-15T03:35:18.695Z,453.00
2023-04-15T03:36:18.645Z,451.00
2023-04-15T03:37:18.609Z,447.00
2023-04-15T03:38:18.580Z,448.00
2023-04-15T03:39:18.551Z,449.00
2023-04-15T03:40:18.557Z,451.00
2023-04-15T03:41:18.509Z,452.00
2023-04-15T03:42:18.519Z,454.00
2023-04-15T03:43:18.464Z,455.00
2023-04-15T03:44:18.450Z,455.00
2023-04-15T03:45:18.420Z,453.00
2023-04-15T03:46:18.523Z,454.00
2023-04-15T03:47:18.390Z,452.00
2023-04-15T03:48:18.559Z,453.00
2023-04-15T03:49:18.371Z,457.00
2023-04-15T03:50:18.322Z,457.00
2023-04-15T03:51:18.350Z,459.00
2023-04-15T03:52:18.359Z,459.00
2023-04-15T03:53:18.394Z,459.00
2023-04-15T03:54:18.418Z,457.00
2023-04-15T03:55:18.477Z,457.00
2023-04-15T03:56:18.401Z,457.00
2023-04-15T03:57:18.393Z,458.00
2023-04-15T03:58:18.365Z,459.00
2023-04-15T03:59:18.329Z,456.00
2023-04-15T04:00:18.340Z,458.00
2023-04-15T04:01:18.340Z,458.00
2023-04-15T04:02:18.347Z,459.00
2023-04-15T04:03:18.387Z,457.00
2023-04-15T04:04:18.289Z,457.00
2023-04-15T04:05:18.221Z,458.00
2023-04-15T04:06:18.201Z,457.00
2023-04-15T04:07:18.222Z,455.00
2023-04-15T04:08:18.171Z,454.00
2023-04-15T04:09:18.141Z,455.00
2023-04-15T04:10:18.178Z,457.00
2023-04-15T04:11:18.214Z,455.00
2023-04-15T04:12:18.212Z,456.00
2023-04-15T04:13:18.260Z,456.00
2023-04-15T04:14:18.324Z,457.00
2023-04-15T04:15:18.385Z,457.00
2023-04-15T04:16:18.477Z,459.00
2023-04-15T04:17:18.369Z,459.00
2023-04-15T04:18:18.324Z,460.00
2023-04-15T04:19:18.352Z,458.00
2023-04-15T04:20:18.329Z,458.00
2023-04-15T04:21:18.280Z,458.00
2023-04-15T04:22:18.263Z,460.00
2023-04-15T04:23:18.227Z,461.00
2023-04-15T04:24:18.237Z,460.00
2023-04-15T04:25:18.222Z,458.00
2023-04-15T04:26:18.214Z,457.00
2023-04-15T04:27:18.200Z,458.00
2023-04-15T04:28:18.191Z,458.00
2023-04-15T04:29:18.222Z,457.00
2023-04-15T04:30:18.251Z,456.00
2023-04-15T04:31:18.208Z,454.00
2023-04-15T04:32:18.190Z,456.00
2023-04-15T04:33:18.178Z,454.00
2023-04-15T04:34:18.180Z,456.00
2023-04-15T04:35:18.200Z,458.00
2023-04-15T04:36:18.226Z,460.00
2023-04-15T04:37:18.205Z,459.00
2023-04-15T04:38:18.211Z,459.00
2023-04-15T04:39:18.195Z,459.00
2023-04-15T04:40:18.195Z,460.00
2023-04-15T04:41:18.192Z,457.00
2023-04-15T04:42:18.189Z,454.00
2023-04-15T04:43:18.192Z,453.00
2023-04-15T04:44:18.244Z,450.00
2023-04-15T04:45:18.225Z,450.00
2023-04-15T04:46:18.340Z,446.00
2023-04-15T04:47:18.232Z,445.00
2023-04-15T04:48:18.251Z,445.00
2023-04-15T04:49:18.244Z,444.00
2023-04-15T04:50:18.269Z,444.00
2023-04-15T04:51:18.285Z,442.00
2023-04-15T04:52:18.288Z,446.00
2023-04-15T04:53:18.325Z,447.00
2023-04-15T04:54:18.304Z,449.00
2023-04-15T04:55:18.306Z,448.00
2023-04-15T04:56:18.344Z,448.00
2023-04-15T04:57:18.316Z,451.00
2023-04-15T04:58:18.325Z,452.00
2023-04-15T04:59:19.403Z,453.00
2023-04-15T05:00:18.325Z,454.00
2023-04-15T05:01:18.383Z,453.00
2023-04-15T05:02:18.411Z,450.00
2023-04-15T05:03:18.441Z,448.00
2023-04-15T05:04:18.412Z,447.00
2023-04-15T05:05:18.363Z,448.00
2023-04-15T05:06:18.390Z,447.00
2023-04-15T05:07:18.366Z,446.00
2023-04-15T05:08:18.385Z,447.00
2023-04-15T05:09:18.371Z,449.00
2023-04-15T05:10:18.442Z,451.00
2023-04-15T05:11:18.408Z,451.00
2023-04-15T05:12:18.414Z,449.00
2023-04-15T05:13:18.403Z,448.00
2023-04-15T05:14:18.415Z,449.00
2023-04-15T05:15:18.416Z,448.00
2023-04-15T05:16:18.480Z,446.00
2023-04-15T05:17:18.417Z,447.00
2023-04-15T05:18:18.426Z,448.00
2023-04-15T05:19:18.416Z,448.00
2023-04-15T05:20:18.407Z,448.00
2023-04-15T05:21:18.382Z,447.00
2023-04-15T05:22:18.364Z,449.00
2023-04-15T05:23:18.348Z,445.00
2023-04-15T05:24:18.334Z,445.00
2023-04-15T05:25:18.326Z,445.00
2023-04-15T05:26:18.335Z,446.00
2023-04-15T05:27:18.304Z,448.00
2023-04-15T05:28:18.278Z,449.00
2023-04-15T05:29:18.244Z,448.00
2023-04-15T05:30:18.428Z,448.00
2023-04-15T05:31:18.322Z,447.00
2023-04-15T05:32:18.263Z,446.00
2023-04-15T05:33:18.210Z,447.00
2023-04-15T05:34:18.245Z,447.00
2023-04-15T05:35:18.163Z,446.00
2023-04-15T05:36:18.178Z,442.00
2023-04-15T05:37:18.145Z,441.00
2023-04-15T05:38:18.147Z,443.00
2023-04-15T05:39:18.126Z,445.00
2023-04-15T05:40:18.120Z,444.00
2023-04-15T05:41:19.864Z,441.00
2023-04-15T05:42:18.151Z,438.00
2023-04-15T05:43:18.173Z,437.00
2023-04-15T05:44:18.279Z,439.00
2023-04-15T05:45:18.324Z,439.00
2023-04-15T05:46:18.253Z,442.00
2023-04-15T05:47:18.301Z,441.00
2023-04-15T05:48:18.303Z,440.00
2023-04-15T05:49:18.308Z,443.00
2023-04-15T05:50:18.331Z,441.00
2023-04-15T05:51:18.395Z,440.00
2023-04-15T05:52:18.370Z,438.00
2023-04-15T05:53:18.383Z,437.00
2023-04-15T05:54:20.032Z,439.00
2023-04-15T05:55:18.436Z,440.00
2023-04-15T05:56:18.453Z,439.00
2023-04-15T05:57:18.470Z,438.00
2023-04-15T05:58:18.560Z,439.00
2023-04-15T05:59:18.504Z,440.00
2023-04-15T06:00:18.527Z,438.00
2023-04-15T06:01:18.564Z,438.00
2023-04-15T06:02:18.688Z,440.00
2023-04-15T06:03:18.710Z,439.00
2023-04-15T06:04:18.711Z,437.00
2023-04-15T06:05:18.737Z,438.00
2023-04-15T06:06:18.685Z,438.00
2023-04-15T06:07:18.769Z,436.00
2023-04-15T06:08:18.758Z,436.00
2023-04-15T06:09:18.766Z,436.00
2023-04-15T06:10:18.784Z,435.00
2023-04-15T06:11:18.887Z,435.00
2023-04-15T06:12:18.827Z,434.00
2023-04-15T06:13:18.918Z,433.00
2023-04-15T06:14:18.886Z,434.00
2023-04-15T06:15:18.897Z,435.00
2023-04-15T06:16:18.946Z,436.00
2023-04-15T06:17:18.980Z,440.00
2023-04-15T06:18:18.925Z,439.00
2023-04-15T06:19:18.916Z,437.00
2023-04-15T06:20:18.930Z,437.00
2023-04-15T06:21:18.911Z,438.00
2023-04-15T06:22:18.880Z,436.00
2023-04-15T06:23:18.923Z,435.00
2023-04-15T06:24:18.878Z,432.00
2023-04-15T06:25:18.855Z,431.00
2023-04-15T06:26:18.858Z,433.00
2023-04-15T06:27:18.830Z,436.00
2023-04-15T06:28:18.815Z,438.00
2023-04-15T06:29:18.809Z,437.00
2023-04-15T06:30:18.810Z,439.00
2023-04-15T06:31:18.809Z,440.00
2023-04-15T06:32:18.784Z,441.00
2023-04-15T06:33:18.780Z,442.00
2023-04-15T06:34:18.753Z,443.00
2023-04-15T06:35:18.756Z,441.00
2023-04-15T06:36:18.769Z,440.00
2023-04-15T06:37:18.797Z,440.00
2023-04-15T06:38:18.797Z,438.00
2023-04-15T06:39:18.785Z,437.00
2023-04-15T06:40:18.830Z,436.00
2023-04-15T06:41:18.756Z,435.00
2023-04-15T06:42:18.833Z,439.00
2023-04-15T06:43:18.730Z,438.00
2023-04-15T06:44:18.715Z,439.00
2023-04-15T06:45:18.702Z,439.00
2023-04-15T06:46:18.845Z,439.00
2023-04-15T06:47:18.697Z,439.00
2023-04-15T06:48:18.669Z,439.00
2023-04-15T06:49:18.666Z,439.00
2023-04-15T06:50:18.644Z,440.00
2023-04-15T06:51:18.645Z,443.00
2023-04-15T06:52:19.038Z,440.00
2023-04-15T06:53:18.626Z,438.00
2023-04-15T06:54:18.615Z,436.00
2023-04-15T06:55:18.614Z,436.00
2023-04-15T06:56:18.579Z,435.00
2023-04-15T06:57:18.613Z,433.00
2023-04-15T06:58:18.628Z,432.00
2023-04-15T06:59:18.628Z,433.00
2023-04-15T07:00:18.601Z,434.00
2023-04-15T07:01:18.632Z,435.00
2023-04-15T07:02:19.138Z,438.00
2023-04-15T07:03:18.645Z,440.00
2023-04-15T07:04:18.649Z,439.00
2023-04-15T07:05:18.587Z,439.00
2023-04-15T07:06:18.584Z,437.00
2023-04-15T07:07:19.053Z,436.00
2023-04-15T07:08:18.545Z,439.00
2023-04-15T07:09:18.526Z,439.00
2023-04-15T07:10:18.526Z,440.00
2023-04-15T07:11:18.536Z,441.00
2023-04-15T07:12:18.533Z,442.00
2023-04-15T07:13:18.533Z,441.00
2023-04-15T07:14:18.545Z,444.00
2023-04-15T07:15:18.482Z,444.00
2023-04-15T07:16:18.536Z,442.00
2023-04-15T07:17:18.561Z,441.00
2023-04-15T07:18:18.485Z,441.00
2023-04-15T07:19:18.443Z,440.00
2023-04-15T07:20:18.446Z,440.00
2023-04-15T07:21:18.433Z,441.00
2023-04-15T07:22:18.528Z,437.00
2023-04-15T07:23:18.385Z,438.00
2023-04-15T07:24:18.385Z,437.00
2023-04-15T07:25:18.373Z,438.00
2023-04-15T07:26:18.360Z,439.00
2023-04-15T07:27:18.383Z,443.00
2023-04-15T07:28:18.320Z,443.00
2023-04-15T07:29:18.317Z,442.00
2023-04-15T07:30:18.286Z,441.00
2023-04-15T07:31:18.494Z,439.00
2023-04-15T07:32:18.297Z,438.00
2023-04-15T07:33:18.265Z,439.00
2023-04-15T07:34:18.213Z,441.00
2023-04-15T07:35:18.202Z,442.00
2023-04-15T07:36:18.177Z,441.00
2023-04-15T07:37:18.217Z,439.00
2023-04-15T07:38:18.122Z,438.00
2023-04-15T07:39:18.136Z,438.00
2023-04-15T07:40:18.223Z,438.00
2023-04-15T07:41:18.281Z,439.00
2023-04-15T07:42:18.280Z,439.00
2023-04-15T07:43:18.337Z,439.00
2023-04-15T07:44:18.412Z,440.00
2023-04-15T07:45:18.453Z,439.00
2023-04-15T07:46:18.498Z,437.00
2023-04-15T07:47:18.630Z,434.00
2023-04-15T07:48:18.579Z,432.00
2023-04-15T07:49:18.603Z,434.00
2023-04-15T07:50:18.793Z,435.00
2023-04-15T07:51:18.681Z,436.00
2023-04-15T07:52:18.769Z,437.00
2023-04-15T07:53:18.770Z,438.00
2023-04-15T07:54:18.810Z,438.00
2023-04-15T07:55:18.854Z,440.00
2023-04-15T07:56:18.904Z,439.00
2023-04-15T07:57:18.937Z,439.00
2023-04-15T07:58:18.957Z,438.00
2023-04-15T07:59:19.024Z,437.00
2023-04-15T08:00:19.032Z,437.00
2023-04-15T08:01:19.131Z,436.00
2023-04-15T08:02:19.221Z,438.00
2023-04-15T08:03:19.255Z,440.00
2023-04-15T08:04:19.318Z,440.00
2023-04-15T08:05:19.302Z,438.00
2023-04-15T08:06:19.245Z,437.00
2023-04-15T08:07:19.232Z,433.00
2023-04-15T08:08:19.252Z,430.00
2023-04-15T08:09:19.284Z,431.00
2023-04-15T08:10:19.347Z,433.00
2023-04-15T08:11:19.351Z,431.00
2023-04-15T08:12:19.464Z,431.00
2023-04-15T08:13:19.444Z,430.00
2023-04-15T08:14:19.473Z,430.00
2023-04-15T08:15:19.510Z,431.00
2023-04-15T08:16:19.624Z,429.00
2023-04-15T08:17:19.605Z,430.00
2023-04-15T08:18:19.629Z,431.00
2023-04-15T08:19:19.653Z,430.00
2023-04-15T08:20:19.714Z,431.00
2023-04-15T08:21:19.719Z,433.00
2023-04-15T08:22:21.248Z,432.00
2023-04-15T08:23:19.945Z,433.00
2023-04-15T08:24:19.908Z,432.00
2023-04-15T08:25:20.038Z,432.00
2023-04-15T08:26:19.924Z,433.00
2023-04-15T08:27:20.020Z,432.00
2023-04-15T08:28:20.032Z,436.00
2023-04-15T08:29:19.992Z,437.00
2023-04-15T08:30:19.997Z,435.00
2023-04-15T08:31:20.151Z,435.00
2023-04-15T08:32:20.027Z,436.00
2023-04-15T08:33:20.086Z,435.00
2023-04-15T08:34:20.147Z,433.00
2023-04-15T08:35:20.071Z,432.00
2023-04-15T08:36:20.049Z,435.00
2023-04-15T08:37:20.049Z,437.00
2023-04-15T08:38:20.065Z,437.00
2023-04-15T08:39:20.134Z,439.00
2023-04-15T08:40:20.209Z,440.00
2023-04-15T08:41:20.101Z,438.00
2023-04-15T08:42:20.104Z,438.00
2023-04-15T08:43:20.095Z,437.00
2023-04-15T08:44:20.082Z,435.00
2023-04-15T08:45:20.096Z,435.00
2023-04-15T08:46:20.099Z,435.00
2023-04-15T08:47:20.077Z,434.00
2023-04-15T08:48:20.119Z,431.00
2023-04-15T08:49:20.032Z,431.00
2023-04-15T08:50:20.071Z,432.00
2023-04-15T08:51:20.033Z,432.00
2023-04-15T08:52:19.999Z,433.00
2023-04-15T08:53:20.004Z,434.00
2023-04-15T08:54:19.979Z,434.00
2023-04-15T08:55:20.114Z,432.00
2023-04-15T08:56:19.973Z,431.00
2023-04-15T08:57:19.963Z,431.00
2023-04-15T08:58:19.929Z,429.00
2023-04-15T08:59:19.920Z,429.00
2023-04-15T09:00:19.940Z,429.00
2023-04-15T09:01:19.978Z,428.00
2023-04-15T09:02:19.974Z,430.00
2023-04-15T09:03:20.211Z,429.00
2023-04-15T09:04:20.053Z,430.00
2023-04-15T09:05:19.784Z,428.00
2023-04-15T09:06:19.754Z,430.00
2023-04-15T09:07:19.731Z,431.00
2023-04-15T09:08:19.819Z,432.00
2023-04-15T09:09:19.767Z,433.00
2023-04-15T09:10:19.651Z,435.00
2023-04-15T09:11:20.236Z,436.00
2023-04-15T09:12:19.644Z,436.00
2023-04-15T09:13:19.700Z,436.00
2023-04-15T09:14:19.605Z,435.00
2023-04-15T09:15:19.536Z,436.00
2023-04-15T09:16:19.578Z,438.00
2023-04-15T09:17:19.578Z,439.00
2023-04-15T09:18:19.502Z,438.00
2023-04-15T09:19:19.467Z,436.00
2023-04-15T09:20:19.536Z,433.00
2023-04-15T09:21:19.501Z,433.00
2023-04-15T09:22:19.409Z,434.00
2023-04-15T09:23:19.535Z,437.00
2023-04-15T09:24:19.376Z,438.00
2023-04-15T09:25:19.381Z,437.00
2023-04-15T09:26:19.447Z,433.00
2023-04-15T09:27:19.342Z,432.00
2023-04-15T09:28:19.411Z,429.00
2023-04-15T09:29:19.454Z,429.00
2023-04-15T09:30:19.314Z,428.00
2023-04-15T09:31:19.358Z,430.00
2023-04-15T09:32:19.316Z,429.00
2023-04-15T09:33:19.465Z,432.00
2023-04-15T09:34:19.379Z,432.00
2023-04-15T09:35:19.347Z,431.00
2023-04-15T09:36:19.299Z,434.00
2023-04-15T09:37:31.688Z,436.00
2023-04-15T09:38:20.283Z,437.00
2023-04-15T09:39:19.229Z,437.00
2023-04-15T09:40:19.186Z,437.00
2023-04-15T09:41:19.167Z,439.00
2023-04-15T09:42:19.129Z,439.00
2023-04-15T09:43:19.073Z,439.00
2023-04-15T09:44:19.107Z,440.00
2023-04-15T09:45:18.994Z,440.00
2023-04-15T09:46:19.102Z,439.00
2023-04-15T09:47:19.047Z,439.00
2023-04-15T09:48:19.056Z,438.00
2023-04-15T09:49:19.107Z,435.00
2023-04-15T09:50:19.075Z,434.00
2023-04-15T09:51:19.110Z,435.00
2023-04-15T09:52:19.158Z,435.00
2023-04-15T09:53:19.257Z,436.00
2023-04-15T09:54:19.305Z,437.00
2023-04-15T09:55:19.215Z,438.00
2023-04-15T09:56:19.253Z,437.00
2023-04-15T09:57:19.154Z,437.00
2023-04-15T09:58:19.110Z,436.00
2023-04-15T09:59:20.112Z,435.00
2023-04-15T10:00:19.021Z,436.00
2023-04-15T10:01:19.052Z,438.00
2023-04-15T10:02:19.177Z,439.00
2023-04-15T10:03:19.137Z,440.00
2023-04-15T10:04:18.985Z,440.00
2023-04-15T10:05:18.943Z,439.00
2023-04-15T10:06:18.983Z,438.00
2023-04-15T10:07:18.986Z,441.00
2023-04-15T10:08:19.018Z,441.00
2023-04-15T10:09:19.041Z,440.00
2023-04-15T10:10:19.061Z,440.00
2023-04-15T10:11:19.079Z,438.00
2023-04-15T10:12:19.105Z,441.00
2023-04-15T10:13:19.132Z,441.00
2023-04-15T10:14:19.203Z,442.00
2023-04-15T10:15:19.207Z,443.00
2023-04-15T10:16:19.267Z,443.00
2023-04-15T10:17:19.239Z,445.00
2023-04-15T10:18:19.272Z,445.00
2023-04-15T10:19:19.310Z,445.00
2023-04-15T10:20:19.339Z,445.00
2023-04-15T10:21:19.380Z,444.00
2023-04-15T10:22:19.400Z,443.00
2023-04-15T10:23:19.430Z,441.00
2023-04-15T10:24:19.466Z,440.00
2023-04-15T10:25:19.528Z,441.00
2023-04-15T10:26:19.522Z,443.00
2023-04-15T10:27:19.552Z,443.00
2023-04-15T10:28:19.598Z,444.00
2023-04-15T10:29:19.664Z,444.00
2023-04-15T10:30:19.681Z,444.00
2023-04-15T10:31:19.706Z,442.00
2023-04-15T10:32:19.812Z,443.00
2023-04-15T10:33:19.714Z,439.00
2023-04-15T10:34:19.721Z,438.00
2023-04-15T10:35:19.730Z,440.00
2023-04-15T10:36:19.747Z,440.00
2023-04-15T10:37:19.758Z,441.00
2023-04-15T10:38:19.816Z,443.00
2023-04-15T10:39:19.826Z,443.00
2023-04-15T10:40:19.858Z,444.00
2023-04-15T10:41:20.709Z,443.00
2023-04-15T10:42:19.885Z,441.00
2023-04-15T10:43:19.895Z,442.00
2023-04-15T10:44:19.930Z,443.00
2023-04-15T10:45:19.933Z,444.00
2023-04-15T10:46:20.005Z,444.00
2023-04-15T10:47:19.993Z,443.00
2023-04-15T10:48:20.011Z,445.00
2023-04-15T10:49:20.047Z,445.00
2023-04-15T10:50:20.043Z,446.00
2023-04-15T10:51:20.062Z,446.00
2023-04-15T10:52:20.081Z,445.00
2023-04-15T10:53:21.791Z,445.00
2023-04-15T10:54:20.141Z,446.00
2023-04-15T10:55:20.622Z,448.00
2023-04-15T10:56:20.193Z,448.00
2023-04-15T10:57:20.156Z,447.00
2023-04-15T10:58:20.201Z,447.00
2023-04-15T10:59:21.411Z,451.00
2023-04-15T11:00:20.216Z,451.00
2023-04-15T11:01:20.273Z,449.00
2023-04-15T11:02:20.343Z,448.00
2023-04-15T11:03:20.353Z,447.00
2023-04-15T11:04:20.411Z,446.00
2023-04-15T11:05:20.191Z,447.00
2023-04-15T11:06:20.175Z,446.00
2023-04-15T11:07:20.105Z,446.00
2023-04-15T11:08:20.071Z,448.00
2023-04-15T11:09:20.001Z,449.00
2023-04-15T11:10:19.956Z,446.00
2023-04-15T11:11:19.937Z,447.00
2023-04-15T11:12:19.872Z,447.00
2023-04-15T11:13:19.838Z,447.00
2023-04-15T11:14:19.863Z,445.00
2023-04-15T11:15:19.842Z,448.00
2023-04-15T11:16:19.934Z,449.00
2023-04-15T11:17:19.869Z,447.00
2023-04-15T11:18:19.876Z,447.00
2023-04-15T11:19:19.901Z,446.00
2023-04-15T11:20:19.903Z,446.00
2023-04-15T11:21:19.957Z,447.00
2023-04-15T11:22:19.911Z,446.00
2023-04-15T11:23:19.970Z,447.00
2023-04-15T11:24:19.952Z,446.00
2023-04-15T11:25:19.949Z,447.00
2023-04-15T11:26:19.923Z,448.00
2023-04-15T11:27:19.898Z,448.00
2023-04-15T11:28:19.824Z,448.00
2023-04-15T11:29:19.789Z,448.00
2023-04-15T11:30:19.799Z,446.00
2023-04-15T11:31:19.735Z,444.00
2023-04-15T11:32:19.809Z,444.00
2023-04-15T11:33:19.624Z,444.00
2023-04-15T11:34:19.614Z,445.00
2023-04-15T11:35:19.646Z,444.00
2023-04-15T11:36:19.671Z,446.00
2023-04-15T11:37:19.671Z,447.00
2023-04-15T11:38:19.755Z,445.00
2023-04-15T11:39:19.698Z,445.00
2023-04-15T11:40:19.710Z,445.00
2023-04-15T11:41:19.698Z,444.00
2023-04-15T11:42:19.673Z,445.00
2023-04-15T11:43:19.673Z,444.00
2023-04-15T11:44:19.668Z,442.00
2023-04-15T11:45:19.652Z,438.00
2023-04-15T11:46:19.794Z,439.00
2023-04-15T11:47:19.729Z,437.00
2023-04-15T11:48:19.624Z,439.00
2023-04-15T11:49:19.590Z,438.00
2023-04-15T11:50:19.537Z,441.00
2023-04-15T11:51:19.486Z,443.00
2023-04-15T11:52:19.438Z,443.00
2023-04-15T11:53:19.395Z,441.00
2023-04-15T11:54:19.351Z,441.00
2023-04-15T11:55:19.362Z,441.00
2023-04-15T11:56:19.269Z,445.00
2023-04-15T11:57:19.223Z,446.00
2023-04-15T11:58:19.186Z,448.00
2023-04-15T11:59:19.134Z,446.00
2023-04-15T12:00:19.120Z,445.00
2023-04-15T12:01:19.060Z,445.00
2023-04-15T12:02:19.159Z,446.00
2023-04-15T12:03:19.199Z,445.00
2023-04-15T12:04:21.478Z,445.00
2023-04-15T12:05:18.976Z,443.00
2023-04-15T12:06:18.866Z,443.00
2023-04-15T12:07:18.796Z,442.00
2023-04-15T12:08:18.776Z,441.00
2023-04-15T12:09:18.725Z,443.00
2023-04-15T12:10:18.698Z,443.00
2023-04-15T12:11:18.639Z,443.00
2023-04-15T12:12:18.596Z,446.00
2023-04-15T12:13:18.594Z,447.00
2023-04-15T12:14:18.540Z,445.00
2023-04-15T12:15:18.497Z,447.00
2023-04-15T12:16:18.512Z,446.00
2023-04-15T12:17:18.425Z,445.00
2023-04-15T12:18:18.510Z,445.00
2023-04-15T12:19:18.340Z,448.00
2023-04-15T12:20:18.270Z,446.00
2023-04-15T12:21:18.300Z,447.00
2023-04-15T12:22:18.258Z,450.00
2023-04-15T12:23:18.150Z,448.00
2023-04-15T12:24:18.111Z,446.00
2023-04-15T12:25:18.080Z,445.00
2023-04-15T12:26:18.023Z,446.00
2023-04-15T12:27:18.041Z,449.00
2023-04-15T12:28:18.086Z,450.00